createdAt,value
2019-03-06T00:00:48.028Z,10.30
2019-03-06T00:03:17.152Z,10.68
2019-03-06T00:05:44.284Z,12.53
2019-03-06T00:08:11.387Z,13.38
2019-03-06T00:10:38.541Z,13.18
2019-03-06T00:13:05.528Z,12.70
2019-03-06T00:15:32.742Z,10.93
2019-03-06T00:18:00.022Z,13.10
2019-03-06T00:20:28.182Z,13.35
2019-03-06T00:22:55.931Z,12.05
2019-03-06T00:25:22.994Z,15.25
2019-03-06T00:27:50.123Z,13.53
2019-03-06T00:30:17.454Z,13.28
2019-03-06T00:32:44.866Z,12.35
2019-03-06T00:35:19.903Z,12.65
2019-03-06T00:37:47.540Z,14.45
2019-03-06T00:40:37.691Z,16.25
2019-03-06T00:43:05.124Z,11.03
2019-03-06T00:45:32.138Z,12.47
2019-03-06T00:47:59.231Z,16.05
2019-03-06T00:50:26.634Z,13.90
2019-03-06T00:52:53.711Z,15.03
2019-03-06T00:55:21.331Z,14.45
2019-03-06T00:57:48.695Z,12.20
2019-03-06T01:00:17.267Z,15.65
2019-03-06T01:02:44.362Z,10.95
2019-03-06T01:05:11.506Z,15.50
2019-03-06T01:07:39.187Z,13.43
2019-03-06T01:10:07.860Z,12.53
2019-03-06T01:12:34.900Z,12.23
2019-03-06T01:15:02.187Z,12.40
2019-03-06T01:17:31.002Z,11.30
2019-03-06T01:19:57.949Z,13.43
2019-03-06T01:22:25.089Z,16.20
2019-03-06T01:24:52.383Z,9.03
2019-03-06T01:27:19.431Z,11.38
2019-03-06T01:29:46.785Z,10.50
2019-03-06T01:32:13.869Z,11.38
2019-03-06T01:35:12.982Z,10.68
2019-03-06T01:37:51.438Z,12.53
2019-03-06T01:40:38.986Z,9.75
2019-03-06T01:43:19.146Z,9.15
2019-03-06T01:45:46.315Z,13.15
2019-03-06T01:48:13.592Z,12.30
2019-03-06T01:50:40.890Z,9.83
2019-03-06T01:53:08.043Z,10.65
2019-03-06T01:55:35.057Z,10.75
2019-03-06T01:58:02.286Z,11.18
2019-03-06T02:00:29.551Z,11.57
2019-03-06T02:02:56.744Z,15.23
2019-03-06T02:05:24.282Z,12.53
2019-03-06T02:07:51.979Z,13.65
2019-03-06T02:10:19.144Z,10.45
2019-03-06T02:12:46.143Z,11.22
2019-03-06T02:15:14.561Z,11.33
2019-03-06T02:17:41.734Z,12.78
2019-03-06T02:20:10.597Z,13.32
2019-03-06T02:22:37.574Z,15.30
2019-03-06T02:25:04.759Z,16.85
2019-03-06T02:27:32.086Z,15.43
2019-03-06T02:29:59.480Z,13.05
2019-03-06T02:32:27.646Z,13.98
2019-03-06T02:34:54.973Z,15.35
2019-03-06T02:37:22.056Z,14.00
2019-03-06T02:39:49.404Z,13.18
2019-03-06T02:42:16.691Z,16.95
2019-03-06T02:44:43.892Z,15.58
2019-03-06T02:47:10.962Z,12.70
2019-03-06T02:49:37.974Z,14.33
2019-03-06T02:52:05.039Z,15.08
2019-03-06T02:54:32.311Z,15.65
2019-03-06T02:56:59.402Z,16.42
2019-03-06T02:59:45.715Z,13.78
2019-03-06T03:02:31.577Z,17.55
2019-03-06T03:05:33.528Z,13.98
2019-03-06T03:08:00.917Z,17.37
2019-03-06T03:10:28.042Z,15.65
2019-03-06T03:12:55.384Z,19.15
2019-03-06T03:15:23.875Z,13.13
2019-03-06T03:17:50.983Z,16.60
2019-03-06T03:20:18.157Z,15.40
2019-03-06T03:22:45.271Z,18.40
2019-03-06T03:25:12.618Z,16.62
2019-03-06T03:27:40.249Z,19.85
2019-03-06T03:30:10.071Z,15.32
2019-03-06T03:32:37.146Z,14.55
2019-03-06T03:35:04.569Z,16.48
2019-03-06T03:37:31.616Z,14.25
2019-03-06T03:39:58.608Z,15.48
2019-03-06T03:42:26.063Z,17.20
2019-03-06T03:44:53.361Z,18.35
2019-03-06T03:47:20.440Z,15.35
2019-03-06T03:49:47.547Z,19.17
2019-03-06T03:52:14.584Z,17.37
2019-03-06T03:54:41.650Z,15.70
2019-03-06T03:57:08.703Z,18.27
2019-03-06T03:59:35.837Z,18.57
2019-03-06T04:02:03.026Z,15.93
2019-03-06T04:04:30.123Z,16.20
2019-03-06T04:06:57.335Z,19.75
2019-03-06T04:09:24.323Z,19.62
2019-03-06T04:11:51.403Z,18.07
2019-03-06T04:14:18.884Z,20.85
2019-03-06T04:16:45.952Z,18.37
2019-03-06T04:19:12.931Z,20.02
2019-03-06T04:21:40.104Z,19.05
2019-03-06T04:24:07.357Z,20.52
2019-03-06T04:26:34.436Z,20.00
2019-03-06T04:29:01.858Z,19.73
2019-03-06T04:31:29.445Z,20.60
2019-03-06T04:33:56.601Z,21.35
2019-03-06T04:36:23.951Z,20.20
2019-03-06T04:38:51.168Z,19.85
2019-03-06T04:41:18.247Z,19.62
2019-03-06T04:43:45.325Z,19.98
2019-03-06T04:46:12.667Z,20.45
2019-03-06T04:48:40.116Z,23.52
2019-03-06T04:51:08.180Z,20.17
2019-03-06T04:53:35.647Z,22.02
2019-03-06T04:56:03.094Z,19.32
2019-03-06T04:58:30.387Z,22.37
2019-03-06T05:00:57.413Z,21.70
2019-03-06T05:03:24.967Z,25.40
2019-03-06T05:05:52.075Z,19.52
2019-03-06T05:08:19.484Z,19.25
2019-03-06T05:10:46.928Z,20.25
2019-03-06T05:13:13.927Z,17.52
2019-03-06T05:15:41.214Z,21.15
2019-03-06T05:18:16.514Z,20.95
2019-03-06T05:20:43.986Z,19.82
2019-03-06T05:23:11.292Z,23.27
2019-03-06T05:25:38.378Z,16.48
2019-03-06T05:28:05.782Z,21.73
2019-03-06T05:30:33.135Z,19.07
2019-03-06T05:33:00.711Z,18.55
2019-03-06T05:36:19.130Z,18.23
2019-03-06T05:39:00.966Z,21.40
2019-03-06T05:41:28.513Z,22.48
2019-03-06T05:43:55.535Z,20.85
2019-03-06T05:46:22.826Z,23.07
2019-03-06T05:48:50.145Z,18.52
2019-03-06T05:51:17.335Z,18.35
2019-03-06T05:53:44.302Z,17.57
2019-03-06T05:56:11.360Z,20.40
2019-03-06T05:58:38.352Z,16.77
2019-03-06T06:01:05.551Z,16.20
2019-03-06T06:03:32.931Z,18.73
2019-03-06T06:06:00.690Z,19.12
2019-03-06T06:08:27.874Z,16.87
2019-03-06T06:10:55.034Z,17.67
2019-03-06T06:13:22.335Z,15.43
2019-03-06T06:15:49.403Z,15.88
2019-03-06T06:18:16.395Z,16.85
2019-03-06T06:20:43.587Z,16.93
2019-03-06T06:23:28.962Z,16.62
2019-03-06T06:25:56.386Z,15.08
2019-03-06T06:28:23.718Z,15.63
2019-03-06T06:30:51.298Z,17.42
2019-03-06T06:33:18.292Z,19.95
2019-03-06T06:35:45.596Z,23.73
2019-03-06T06:38:12.914Z,17.42
2019-03-06T06:40:40.969Z,16.20
2019-03-06T06:43:08.337Z,16.42
2019-03-06T06:45:35.475Z,17.77
2019-03-06T06:48:12.990Z,18.90
2019-03-06T06:51:05.112Z,13.62
2019-03-06T06:53:42.160Z,17.37
2019-03-06T06:56:38.113Z,18.07
2019-03-06T06:59:10.180Z,15.53
2019-03-06T07:02:27.255Z,15.58
2019-03-06T07:05:28.640Z,18.75
2019-03-06T07:08:04.188Z,15.95
2019-03-06T07:10:41.208Z,16.73
2019-03-06T07:13:30.560Z,14.65
2019-03-06T07:16:15.658Z,14.75
2019-03-06T07:19:14.470Z,18.48
2019-03-06T07:22:01.295Z,14.13
2019-03-06T07:24:47.686Z,14.15
2019-03-06T07:27:34.761Z,15.58
2019-03-06T07:30:18.583Z,14.58
2019-03-06T07:32:58.373Z,14.25
2019-03-06T07:36:06.750Z,13.20
2019-03-06T07:38:33.893Z,13.68
2019-03-06T07:41:20.672Z,11.80
2019-03-06T07:44:14.940Z,11.90
2019-03-06T07:47:00.571Z,11.65
2019-03-06T07:49:44.479Z,11.00
2019-03-06T07:52:20.174Z,10.45
2019-03-06T07:54:59.874Z,13.40
2019-03-06T07:57:59.051Z,15.80
2019-03-06T08:00:26.104Z,10.03
2019-03-06T08:03:10.816Z,11.97
2019-03-06T08:05:38.654Z,14.90
2019-03-06T08:08:05.753Z,10.63
2019-03-06T08:10:34.034Z,11.05
2019-03-06T08:13:30.036Z,10.65
2019-03-06T08:16:03.333Z,13.00
2019-03-06T08:18:45.469Z,13.68
2019-03-06T08:21:32.516Z,16.05
2019-03-06T08:24:18.979Z,11.38
2019-03-06T08:26:46.107Z,9.58
2019-03-06T08:29:13.566Z,11.20
2019-03-06T08:31:43.990Z,11.15
2019-03-06T08:34:11.655Z,9.63
2019-03-06T08:36:38.782Z,12.13
2019-03-06T08:39:16.642Z,12.23
2019-03-06T08:41:43.741Z,10.08
2019-03-06T08:44:10.823Z,10.85
2019-03-06T08:46:48.420Z,10.90
2019-03-06T08:49:41.167Z,10.98
2019-03-06T08:52:22.376Z,12.98
2019-03-06T08:55:08.672Z,11.00
2019-03-06T08:57:50.977Z,11.18
2019-03-06T09:00:37.721Z,11.20
2019-03-06T09:03:25.326Z,11.25
2019-03-06T09:06:14.863Z,10.03
2019-03-06T09:09:02.156Z,10.03
2019-03-06T09:11:44.197Z,11.25
2019-03-06T09:14:19.395Z,11.25
2019-03-06T09:16:55.963Z,11.08
2019-03-06T09:19:51.735Z,12.40
2019-03-06T09:22:27.008Z,10.80
2019-03-06T09:25:02.846Z,13.83
2019-03-06T09:27:36.739Z,12.37
2019-03-06T09:30:19.882Z,11.12
2019-03-06T09:33:09.241Z,11.95
2019-03-06T09:36:01.005Z,12.63
2019-03-06T09:38:48.090Z,10.75
2019-03-06T09:41:33.520Z,10.25
2019-03-06T09:44:23.318Z,10.65
2019-03-06T09:47:19.293Z,10.75
2019-03-06T09:49:56.105Z,12.63
2019-03-06T09:52:42.438Z,10.08
2019-03-06T09:55:22.043Z,11.75
2019-03-06T09:58:18.108Z,12.82
2019-03-06T10:01:02.772Z,12.13
2019-03-06T10:03:47.109Z,13.85
2019-03-06T10:06:34.474Z,11.10
2019-03-06T10:09:36.426Z,13.80
2019-03-06T10:12:12.082Z,14.70
2019-03-06T10:15:04.823Z,11.68
2019-03-06T10:17:37.186Z,12.63
2019-03-06T10:20:07.760Z,13.55
2019-03-06T10:22:34.919Z,12.35
2019-03-06T10:25:02.471Z,11.85
2019-03-06T10:27:29.711Z,13.38
2019-03-06T10:29:57.302Z,11.93
2019-03-06T10:32:24.730Z,11.78
2019-03-06T10:34:51.819Z,14.10
2019-03-06T10:37:19.046Z,12.85
2019-03-06T10:39:46.199Z,14.73
2019-03-06T10:42:13.357Z,15.32
2019-03-06T10:44:41.014Z,12.98
2019-03-06T10:47:10.086Z,14.58
2019-03-06T10:49:37.582Z,11.75
2019-03-06T10:52:05.260Z,14.38
2019-03-06T10:54:33.384Z,14.73
2019-03-06T10:57:02.847Z,14.85
2019-03-06T10:59:31.203Z,12.55
2019-03-06T11:01:58.671Z,12.63
2019-03-06T11:04:36.930Z,12.18
2019-03-06T11:07:05.331Z,12.70
2019-03-06T11:09:33.346Z,10.72
2019-03-06T11:12:00.775Z,11.45
2019-03-06T11:14:28.261Z,13.90
2019-03-06T11:16:55.477Z,14.20
2019-03-06T11:19:22.877Z,11.65
2019-03-06T11:21:50.082Z,11.83
2019-03-06T11:24:18.535Z,10.35
2019-03-06T11:26:45.815Z,13.53
2019-03-06T11:29:15.150Z,9.98
2019-03-06T11:31:42.481Z,11.95
2019-03-06T11:34:10.097Z,12.88
2019-03-06T11:36:37.753Z,9.63
2019-03-06T11:39:08.319Z,15.20
2019-03-06T11:41:36.824Z,13.22
2019-03-06T11:44:05.795Z,10.25
2019-03-06T11:46:33.070Z,10.88
2019-03-06T11:49:00.227Z,10.72
2019-03-06T11:51:27.881Z,14.63
2019-03-06T11:53:55.485Z,12.10
2019-03-06T11:56:22.699Z,12.03
2019-03-06T11:58:50.329Z,10.20
2019-03-06T12:01:20.705Z,9.93
2019-03-06T12:03:48.210Z,9.75
2019-03-06T12:06:15.446Z,10.60
2019-03-06T12:08:45.833Z,8.90
2019-03-06T12:11:11.883Z,11.00
2019-03-06T12:13:39.447Z,13.58
2019-03-06T12:16:06.951Z,10.00
2019-03-06T12:18:34.267Z,8.53
2019-03-06T12:21:01.518Z,8.85
2019-03-06T12:23:28.582Z,7.95
2019-03-06T12:25:55.826Z,8.93
2019-03-06T12:28:22.940Z,9.70
2019-03-06T12:30:51.395Z,7.20
2019-03-06T12:33:24.457Z,9.20
2019-03-06T12:35:51.883Z,8.68
2019-03-06T12:38:19.120Z,9.75
2019-03-06T12:40:46.507Z,7.25
2019-03-06T12:43:13.867Z,9.18
2019-03-06T12:46:03.901Z,7.55
2019-03-06T12:48:31.686Z,9.88
2019-03-06T12:50:58.844Z,8.80
2019-03-06T12:53:25.999Z,9.08
2019-03-06T12:55:53.553Z,6.95
2019-03-06T12:58:21.108Z,8.35
2019-03-06T13:00:48.490Z,6.70
2019-03-06T13:03:15.538Z,8.80
2019-03-06T13:05:42.895Z,7.60
2019-03-06T13:08:19.497Z,8.75
2019-03-06T13:10:39.341Z,5.45
2019-03-06T13:13:06.684Z,7.12
2019-03-06T13:15:34.015Z,7.08
2019-03-06T13:18:01.395Z,8.25
2019-03-06T13:20:28.632Z,6.50
2019-03-06T13:22:55.999Z,7.87
2019-03-06T13:25:24.305Z,7.72
2019-03-06T13:27:55.177Z,7.55
2019-03-06T13:30:22.939Z,9.95
2019-03-06T13:33:19.062Z,8.80
2019-03-06T13:35:46.531Z,9.08
2019-03-06T13:38:13.569Z,8.20
2019-03-06T13:40:41.210Z,10.08
2019-03-06T13:43:08.327Z,8.63
2019-03-06T13:45:35.674Z,6.60
2019-03-06T13:48:03.567Z,8.13
2019-03-06T13:50:30.794Z,6.97
2019-03-06T13:52:58.308Z,6.62
2019-03-06T13:55:26.548Z,8.85
2019-03-06T13:57:54.037Z,9.28
2019-03-06T14:00:21.925Z,6.25
2019-03-06T14:02:49.615Z,5.22
2019-03-06T14:05:17.755Z,6.42
2019-03-06T14:07:45.275Z,8.35
2019-03-06T14:10:14.376Z,7.20
2019-03-06T14:12:41.893Z,4.85
2019-03-06T14:15:09.406Z,4.95
2019-03-06T14:17:36.866Z,6.17
2019-03-06T14:20:05.671Z,4.92
2019-03-06T14:22:32.874Z,7.65
2019-03-06T14:25:00.612Z,5.62
2019-03-06T14:27:27.934Z,4.15
2019-03-06T14:29:55.159Z,5.12
2019-03-06T14:32:22.600Z,5.08
2019-03-06T14:34:49.840Z,6.70
2019-03-06T14:37:17.028Z,4.40
2019-03-06T14:39:44.351Z,4.62
2019-03-06T14:42:11.695Z,8.95
2019-03-06T14:44:38.774Z,6.62
2019-03-06T14:47:06.220Z,7.15
2019-03-06T14:49:33.643Z,6.65
2019-03-06T14:52:07.226Z,7.53
2019-03-06T14:54:30.496Z,4.75
2019-03-06T14:56:57.963Z,7.47
2019-03-06T14:59:24.956Z,6.90
2019-03-06T15:01:52.106Z,4.60
2019-03-06T15:04:19.524Z,4.95
2019-03-06T15:06:46.987Z,4.50
2019-03-06T15:09:21.954Z,5.22
2019-03-06T15:11:49.696Z,5.75
2019-03-06T15:14:16.846Z,6.12
2019-03-06T15:16:44.227Z,6.60
2019-03-06T15:19:11.341Z,4.28
2019-03-06T15:21:39.699Z,5.55
2019-03-06T15:24:07.114Z,5.20
2019-03-06T15:26:34.337Z,4.35
2019-03-06T15:29:01.483Z,10.03
2019-03-06T15:31:28.724Z,5.30
2019-03-06T15:33:55.883Z,3.40
2019-03-06T15:36:23.216Z,4.78
2019-03-06T15:38:50.465Z,4.62
2019-03-06T15:41:17.644Z,4.95
2019-03-06T15:43:45.020Z,5.90
2019-03-06T15:46:12.539Z,5.03
2019-03-06T15:48:39.754Z,6.30
2019-03-06T15:51:06.863Z,3.90
2019-03-06T15:53:34.327Z,5.95
2019-03-06T15:56:01.583Z,7.28
2019-03-06T15:58:28.778Z,6.45
2019-03-06T16:00:57.383Z,6.55
2019-03-06T16:03:24.779Z,4.90
2019-03-06T16:05:52.359Z,5.15
2019-03-06T16:08:19.876Z,5.87
2019-03-06T16:10:47.538Z,4.35
2019-03-06T16:13:14.619Z,3.87
2019-03-06T16:15:42.010Z,6.78
2019-03-06T16:18:09.619Z,4.30
2019-03-06T16:20:37.666Z,7.03
2019-03-06T16:23:05.370Z,5.00
2019-03-06T16:25:36.732Z,4.70
2019-03-06T16:28:01.691Z,3.95
2019-03-06T16:30:29.947Z,8.30
2019-03-06T16:32:57.308Z,6.90
2019-03-06T16:35:24.697Z,5.22
2019-03-06T16:37:51.885Z,4.75
2019-03-06T16:40:19.375Z,6.65
2019-03-06T16:42:47.582Z,6.30
2019-03-06T16:45:16.529Z,4.15
2019-03-06T16:47:44.676Z,4.17
2019-03-06T16:50:15.899Z,5.20
2019-03-06T16:52:42.606Z,5.05
2019-03-06T16:55:10.782Z,3.85
2019-03-06T16:57:38.269Z,5.25
2019-03-06T17:00:23.694Z,5.97
2019-03-06T17:02:50.989Z,5.65
2019-03-06T17:05:18.942Z,3.35
2019-03-06T17:07:46.975Z,3.75
2019-03-06T17:10:16.960Z,5.40
2019-03-06T17:12:44.293Z,3.50
2019-03-06T17:15:12.868Z,5.92
2019-03-06T17:17:42.690Z,4.95
2019-03-06T17:20:12.139Z,3.50
2019-03-06T17:22:39.402Z,3.95
2019-03-06T17:25:06.894Z,4.08
2019-03-06T17:27:47.315Z,8.60
2019-03-06T17:30:17.567Z,3.08
2019-03-06T17:32:53.318Z,6.03
2019-03-06T17:35:20.922Z,2.98
2019-03-06T17:37:48.209Z,5.20
2019-03-06T17:40:15.671Z,4.97
2019-03-06T17:42:42.831Z,6.25
2019-03-06T17:45:13.781Z,6.15
2019-03-06T17:47:41.910Z,5.92
2019-03-06T17:50:09.206Z,4.87
2019-03-06T17:52:36.896Z,4.53
2019-03-06T17:55:04.755Z,3.40
2019-03-06T17:57:32.113Z,4.65
2019-03-06T18:00:01.284Z,5.10
2019-03-06T18:02:32.954Z,4.35
2019-03-06T18:05:00.336Z,4.65
2019-03-06T18:07:30.794Z,3.90
2019-03-06T18:09:57.918Z,4.60
2019-03-06T18:12:25.372Z,3.40
2019-03-06T18:14:52.411Z,4.22
2019-03-06T18:17:19.838Z,5.80
2019-03-06T18:19:47.087Z,6.40
2019-03-06T18:22:14.314Z,5.22
2019-03-06T18:24:42.054Z,5.15
2019-03-06T18:27:09.458Z,5.55
2019-03-06T18:29:36.635Z,3.83
2019-03-06T18:32:03.922Z,6.50
2019-03-06T18:34:34.242Z,5.08
2019-03-06T18:37:01.583Z,4.70
2019-03-06T18:39:28.864Z,5.47
2019-03-06T18:41:56.205Z,5.78
2019-03-06T18:44:23.407Z,4.35
2019-03-06T18:46:50.816Z,8.33
2019-03-06T18:49:18.007Z,3.87
2019-03-06T18:51:45.180Z,4.35
2019-03-06T18:54:12.288Z,9.10
2019-03-06T18:56:39.389Z,5.62
2019-03-06T18:59:06.777Z,4.05
2019-03-06T19:01:33.984Z,3.65
2019-03-06T19:04:03.107Z,5.85
2019-03-06T19:06:30.706Z,6.37
2019-03-06T19:08:57.787Z,3.98
2019-03-06T19:11:26.306Z,5.35
2019-03-06T19:13:54.140Z,6.60
2019-03-06T19:16:22.034Z,4.70
2019-03-06T19:18:49.151Z,5.17
2019-03-06T19:21:16.390Z,5.75
2019-03-06T19:23:45.801Z,3.87
2019-03-06T19:26:13.002Z,6.90
2019-03-06T19:28:40.280Z,5.87
2019-03-06T19:31:07.645Z,5.92
2019-03-06T19:33:34.820Z,7.75
2019-03-06T19:36:02.083Z,4.95
2019-03-06T19:38:29.359Z,5.35
2019-03-06T19:40:56.586Z,6.67
2019-03-06T19:43:24.071Z,6.47
2019-03-06T19:45:51.442Z,4.95
2019-03-06T19:48:19.817Z,8.20
2019-03-06T19:50:47.358Z,5.67
2019-03-06T19:53:14.462Z,8.18
2019-03-06T19:55:41.552Z,7.47
2019-03-06T19:58:08.770Z,6.83
2019-03-06T20:00:35.930Z,6.28
2019-03-06T20:03:06.947Z,5.40
2019-03-06T20:05:35.696Z,8.10
2019-03-06T20:08:07.049Z,6.25
2019-03-06T20:10:34.913Z,5.40
2019-03-06T20:13:02.787Z,6.60
2019-03-06T20:15:29.944Z,6.62
2019-03-06T20:17:57.488Z,6.62
2019-03-06T20:20:24.775Z,5.85
2019-03-06T20:22:52.384Z,5.30
2019-03-06T20:25:19.887Z,7.08
2019-03-06T20:27:47.401Z,5.65
2019-03-06T20:30:16.120Z,4.80
2019-03-06T20:32:43.621Z,5.80
2019-03-06T20:35:11.555Z,7.55
2019-03-06T20:37:38.976Z,8.23
2019-03-06T20:40:07.207Z,4.45
2019-03-06T20:42:34.573Z,6.42
2019-03-06T20:45:01.687Z,7.42
2019-03-06T20:47:29.552Z,6.47
2019-03-06T20:49:56.946Z,6.97
2019-03-06T20:52:24.028Z,5.80
2019-03-06T20:54:51.181Z,6.40
2019-03-06T20:57:19.542Z,7.12
2019-03-06T20:59:47.730Z,6.25
2019-03-06T21:02:16.351Z,7.83
2019-03-06T21:04:43.960Z,6.17
2019-03-06T21:07:11.135Z,7.08
2019-03-06T21:09:38.430Z,5.92
2019-03-06T21:12:06.916Z,5.47
2019-03-06T21:14:34.203Z,5.80
2019-03-06T21:17:01.495Z,4.55
2019-03-06T21:19:28.614Z,4.58
2019-03-06T21:21:55.700Z,10.43
2019-03-06T21:24:23.495Z,4.42
2019-03-06T21:26:50.672Z,6.53
2019-03-06T21:29:18.379Z,6.17
2019-03-06T21:31:45.601Z,5.65
2019-03-06T21:34:12.729Z,5.78
2019-03-06T21:36:40.481Z,6.65
2019-03-06T21:39:20.326Z,5.85
2019-03-06T21:41:48.313Z,5.53
2019-03-06T21:44:16.858Z,7.05
2019-03-06T21:46:44.163Z,4.55
2019-03-06T21:49:11.366Z,5.28
2019-03-06T21:51:38.827Z,6.10
2019-03-06T21:54:05.982Z,5.95
2019-03-06T21:56:33.483Z,7.90
2019-03-06T21:59:01.313Z,7.53
2019-03-06T22:01:28.829Z,4.75
2019-03-06T22:03:56.912Z,7.35
2019-03-06T22:06:24.717Z,7.20
2019-03-06T22:08:52.127Z,5.33
2019-03-06T22:11:19.405Z,8.45
2019-03-06T22:13:47.135Z,6.83
2019-03-06T22:16:14.755Z,6.58
2019-03-06T22:18:41.870Z,6.28
2019-03-06T22:21:09.287Z,8.25
2019-03-06T22:23:36.900Z,5.47
2019-03-06T22:26:04.157Z,5.67
2019-03-06T22:28:31.811Z,8.55
2019-03-06T22:30:59.695Z,6.33
2019-03-06T22:33:26.997Z,6.03
2019-03-06T22:35:54.434Z,9.63
2019-03-06T22:38:21.961Z,5.22
2019-03-06T22:40:50.343Z,6.55
2019-03-06T22:43:18.039Z,4.33
2019-03-06T22:45:45.232Z,5.53
2019-03-06T22:48:12.571Z,16.25
2019-03-06T22:50:39.776Z,4.72
2019-03-06T22:53:07.257Z,6.33
2019-03-06T22:55:35.408Z,7.00
2019-03-06T22:58:02.850Z,4.65
2019-03-06T23:00:50.142Z,5.60
2019-03-06T23:03:18.747Z,3.62
2019-03-06T23:05:47.015Z,4.87
2019-03-06T23:08:14.204Z,3.55
2019-03-06T23:10:41.776Z,5.00
2019-03-06T23:13:10.264Z,4.35
2019-03-06T23:15:37.903Z,5.95
2019-03-06T23:18:05.047Z,5.12
2019-03-06T23:20:32.419Z,7.20
2019-03-06T23:22:59.556Z,4.08
2019-03-06T23:25:27.224Z,3.95
2019-03-06T23:27:54.668Z,3.37
2019-03-06T23:30:21.938Z,3.77
2019-03-06T23:32:49.547Z,4.75
2019-03-06T23:35:16.963Z,2.92
2019-03-06T23:37:44.706Z,4.58
2019-03-06T23:40:12.087Z,4.70
2019-03-06T23:42:39.612Z,4.55
2019-03-06T23:45:07.150Z,4.80
2019-03-06T23:47:35.799Z,4.58
2019-03-06T23:50:03.787Z,2.65
2019-03-06T23:52:35.676Z,5.03
2019-03-06T23:55:05.839Z,5.75
2019-03-06T23:57:33.443Z,4.00
